Time;durP1;ratioP1;P1;durP2;ratioP2;P2;SDS_P1;SDS_P2;PMS_P1;PMS_P2;Temp;Humidity;BMP_temperature;BMP_pressure;BME280_temperature;BME280_humidity;BME280_pressure;Samples;Min_cycle;Max_cycle;Signal;HPM_P1;HPM_P2
2022/07/11 00:02:03;;;;;;;7.05;3.08;;;;;;;17.58;100.00;102438.53;5114372;28;20023;-70
2022/07/11 00:04:29;;;;;;;8.98;3.10;;;;;;;17.66;100.00;102428.88;5114182;28;20023;-70
2022/07/11 00:06:55;;;;;;;8.65;3.08;;;;;;;17.68;100.00;102435.13;5114155;28;20024;-70
2022/07/11 00:09:20;;;;;;;8.57;2.60;;;;;;;17.70;100.00;102425.38;5114015;28;20081;-70
2022/07/11 00:11:46;;;;;;;9.85;3.00;;;;;;;17.75;100.00;102430.78;5114225;28;20023;-70
2022/07/11 00:14:12;;;;;;;11.95;2.63;;;;;;;17.81;100.00;102429.09;5114093;28;20069;-70
2022/07/11 00:16:37;;;;;;;10.15;2.90;;;;;;;17.87;100.00;102426.47;5114116;28;20480;-70
2022/07/11 00:19:04;;;;;;;11.05;2.45;;;;;;;17.87;100.00;102433.59;5113332;28;20145;-70
2022/07/11 00:21:30;;;;;;;8.32;2.35;;;;;;;17.89;100.00;102428.28;5103148;28;20024;-70
2022/07/11 00:23:56;;;;;;;8.90;2.25;;;;;;;17.84;100.00;102428.25;5079206;28;20026;-71
2022/07/11 00:26:21;;;;;;;8.15;2.58;;;;;;;17.76;100.00;102416.59;5114011;28;20015;-70
2022/07/11 00:28:46;;;;;;;8.13;2.15;;;;;;;17.78;100.00;102423.72;5096444;28;20385;-70
2022/07/11 00:31:13;;;;;;;6.10;2.05;;;;;;;17.76;100.00;102420.16;5103859;28;20030;-70
2022/07/11 00:33:39;;;;;;;7.13;2.22;;;;;;;17.82;100.00;102427.31;5100309;28;20054;-70
2022/07/11 00:36:04;;;;;;;14.27;2.65;;;;;;;17.74;100.00;102419.22;5113665;28;20062;-70
2022/07/11 00:38:29;;;;;;;8.88;2.47;;;;;;;17.76;100.00;102414.81;5096373;28;20106;-70
2022/07/11 00:40:55;;;;;;;9.95;2.20;;;;;;;17.81;100.00;102415.78;5093410;28;20483;-69
2022/07/11 00:43:30;;;;;;;8.32;2.22;;;;;;;17.86;100.00;102411.41;5093286;28;20103;-70
2022/07/11 00:45:55;;;;;;;10.18;3.03;;;;;;;17.92;100.00;102407.03;5093353;28;20023;-70
2022/07/11 00:48:21;;;;;;;15.85;3.00;;;;;;;17.82;100.00;102417.56;5093116;28;20388;-71
2022/07/11 00:50:46;;;;;;;10.73;2.58;;;;;;;17.80;100.00;102423.75;5093303;28;20442;-70
2022/07/11 00:53:11;;;;;;;9.85;3.13;;;;;;;17.98;100.00;102412.44;5093015;28;20551;-71
2022/07/11 00:55:37;;;;;;;14.95;3.78;;;;;;;17.91;100.00;102405.25;5098285;28;20048;-70
2022/07/11 00:58:03;;;;;;;10.43;3.03;;;;;;;17.90;100.00;102414.09;5076303;28;20052;-70
2022/07/11 01:00:28;;;;;;;11.15;3.10;;;;;;;17.80;100.00;102407.78;5099967;28;20024;-70
2022/07/11 01:02:54;;;;;;;10.40;2.88;;;;;;;17.78;100.00;102410.41;5099965;28;20059;-70
2022/07/11 01:05:19;;;;;;;8.88;3.03;;;;;;;17.79;100.00;102416.63;5099825;28;20080;-70
2022/07/11 01:07:44;;;;;;;9.02;3.22;;;;;;;17.81;100.00;102418.44;5081513;28;20051;-70
2022/07/11 01:10:10;;;;;;;8.70;3.10;;;;;;;17.85;100.00;102411.34;5099837;28;20509;-69
2022/07/11 01:12:35;;;;;;;11.60;3.75;;;;;;;17.89;100.00;102415.84;5081535;28;20020;-70
2022/07/11 01:15:03;;;;;;;8.57;3.05;;;;;;;17.94;100.00;102422.16;5099724;28;20020;-70
2022/07/11 01:17:29;;;;;;;11.05;2.90;;;;;;;17.90;100.00;102417.63;5099562;28;20028;-70
2022/07/11 01:19:54;;;;;;;8.52;3.28;;;;;;;17.85;100.00;102417.59;5116202;28;20019;-70
2022/07/11 01:22:24;;;;;;;10.70;4.28;;;;;;;17.82;100.00;102421.97;5102024;28;20356;-70
2022/07/11 01:24:50;;;;;;;10.43;3.03;;;;;;;17.90;100.00;102409.66;5111288;28;20536;-68
2022/07/11 01:27:15;;;;;;;9.52;3.05;;;;;;;17.90;100.00;102412.31;5101731;28;20011;-71
2022/07/11 01:29:41;;;;;;;10.55;2.65;;;;;;;17.94;100.00;102416.84;5120119;28;20034;-69
2022/07/11 01:32:07;;;;;;;9.52;2.60;;;;;;;18.00;100.00;102416.00;5101740;28;20388;-69
2022/07/11 01:34:33;;;;;;;10.48;2.63;;;;;;;17.98;100.00;102418.66;5099849;28;20035;-70
2022/07/11 01:36:59;;;;;;;8.80;2.50;;;;;;;17.95;100.00;102410.63;5099533;28;20027;-70
2022/07/11 01:39:25;;;;;;;5.57;1.88;;;;;;;17.97;100.00;102413.31;5099582;28;20460;-70
2022/07/11 01:41:50;;;;;;;6.13;2.33;;;;;;;17.95;100.00;102417.75;5099496;28;20075;-70
2022/07/11 01:44:15;;;;;;;8.35;2.30;;;;;;;17.95;100.00;102425.72;5099537;28;20031;-70
2022/07/11 01:46:41;;;;;;;8.30;2.05;;;;;;;17.92;100.00;102415.03;5099312;28;20035;-70
2022/07/11 01:49:06;;;;;;;7.60;1.95;;;;;;;17.92;100.00;102407.94;5099652;28;20020;-70
2022/07/11 01:51:31;;;;;;;11.13;1.80;;;;;;;17.96;100.00;102408.84;5113049;28;20016;-69
2022/07/11 01:53:57;;;;;;;5.38;1.65;;;;;;;17.98;100.00;102409.78;5100983;28;20400;-69
2022/07/11 01:56:23;;;;;;;6.68;1.77;;;;;;;17.99;100.00;102411.56;5102331;28;20413;-70
2022/07/11 01:58:48;;;;;;;4.10;1.83;;;;;;;17.99;100.00;102406.25;5109962;28;20027;-68
2022/07/11 02:01:14;;;;;;;5.05;1.90;;;;;;;17.91;100.00;102408.78;5084042;28;20115;-70
2022/07/11 02:03:39;;;;;;;13.45;1.90;;;;;;;17.83;100.00;102403.34;5099335;28;20028;-70
2022/07/11 02:06:06;;;;;;;3.85;1.58;;;;;;;17.87;100.00;102402.50;5099218;28;20020;-70
2022/07/11 02:08:31;;;;;;;7.20;1.80;;;;;;;17.92;100.00;102402.63;5099255;28;20028;-70
2022/07/11 02:10:56;;;;;;;6.80;1.80;;;;;;;17.98;100.00;102404.44;5096045;28;20016;-70
2022/07/11 02:13:25;;;;;;;4.07;1.55;;;;;;;17.95;100.00;102405.31;5077874;28;20024;-71
2022/07/11 02:15:52;;;;;;;4.13;1.88;;;;;;;17.96;100.00;102403.53;5095864;28;20042;-70
2022/07/11 02:18:18;;;;;;;6.07;1.83;;;;;;;17.93;100.00;102408.81;5099059;28;20035;-70
2022/07/11 02:20:51;;;;;;;6.18;1.65;;;;;;;17.99;100.00;102403.59;5112011;28;20024;-70
2022/07/11 02:23:17;;;;;;;6.28;1.85;;;;;;;17.99;100.00;102406.25;5095775;28;20081;-69
2022/07/11 02:25:43;;;;;;;5.55;1.70;;;;;;;17.98;100.00;102404.44;5114723;28;20051;-70
2022/07/11 02:28:10;;;;;;;8.20;2.13;;;;;;;18.00;100.00;102400.00;5116185;28;20062;-68
2022/07/11 02:30:40;;;;;;;4.18;1.27;;;;;;;18.03;100.00;102398.28;5115983;28;20023;-70
2022/07/11 02:33:07;;;;;;;7.10;2.33;;;;;;;17.99;100.00;102398.25;5116131;28;20027;-71
2022/07/11 02:35:33;;;;;;;7.82;2.03;;;;;;;17.95;100.00;102404.44;5115994;28;20023;-70
2022/07/11 02:37:59;;;;;;;3.75;1.60;;;;;;;17.93;100.00;102392.84;5116270;28;20024;-70
2022/07/11 02:40:26;;;;;;;7.68;1.40;;;;;;;17.89;100.00;102399.88;5096427;28;20102;-70
2022/07/11 02:42:52;;;;;;;4.55;1.35;;;;;;;17.89;100.00;102401.66;5095481;28;20028;-70
2022/07/11 02:45:17;;;;;;;2.70;1.13;;;;;;;17.93;100.00;102398.19;5095392;28;20471;-70
2022/07/11 02:47:43;;;;;;;5.32;1.45;;;;;;;17.94;100.00;102399.97;5077482;28;20020;-69
2022/07/11 02:50:11;;;;;;;2.67;1.33;;;;;;;17.94;100.00;102400.84;5095483;28;20024;-70
2022/07/11 02:52:37;;;;;;;3.95;1.02;;;;;;;17.89;100.00;102404.31;5095124;28;20043;-70
2022/07/11 02:55:03;;;;;;;2.25;1.30;;;;;;;17.90;100.00;102392.78;5081558;28;20027;-70
2022/07/11 02:57:28;;;;;;;2.53;1.33;;;;;;;17.88;100.00;102398.09;5095053;28;20028;-70
2022/07/11 02:59:54;;;;;;;3.13;1.30;;;;;;;17.86;100.00;102391.84;5095119;28;20039;-70
2022/07/11 03:02:19;;;;;;;4.45;1.30;;;;;;;17.89;100.00;102397.19;5095102;28;20035;-70
2022/07/11 03:04:45;;;;;;;5.35;1.40;;;;;;;17.85;100.00;102396.28;5095145;28;20020;-69
2022/07/11 03:07:10;;;;;;;4.75;1.20;;;;;;;17.82;100.00;102400.69;5094968;28;20021;-71
2022/07/11 03:09:36;;;;;;;3.85;1.35;;;;;;;17.76;100.00;102398.84;5076914;28;20059;-69
2022/07/11 03:12:01;;;;;;;5.32;1.27;;;;;;;17.81;100.00;102389.16;5094950;28;20027;-70
2022/07/11 03:14:27;;;;;;;3.80;1.15;;;;;;;17.86;100.00;102398.09;5094898;28;20038;-70
2022/07/11 03:16:52;;;;;;;3.03;1.20;;;;;;;17.88;100.00;102395.44;5094939;28;20081;-69
2022/07/11 03:19:18;;;;;;;4.38;1.20;;;;;;;17.91;100.00;102399.91;5106064;28;20092;-70
2022/07/11 03:21:43;;;;;;;4.63;1.13;;;;;;;17.92;100.00;102391.97;5101296;28;20517;-70
2022/07/11 03:24:08;;;;;;;5.43;1.10;;;;;;;17.96;100.00;102403.53;5100507;28;20080;-70
2022/07/11 03:26:34;;;;;;;5.13;1.27;;;;;;;17.93;100.00;102398.19;5115021;28;20150;-70
2022/07/11 03:28:59;;;;;;;4.85;1.10;;;;;;;17.91;100.00;102406.13;5114893;28;20027;-70
2022/07/11 03:31:24;;;;;;;3.08;0.93;;;;;;;17.94;100.00;102405.28;5114942;28;20024;-70
2022/07/11 03:33:50;;;;;;;4.95;1.20;;;;;;;17.97;100.00;102410.66;5096629;28;20394;-70
2022/07/11 03:36:15;;;;;;;4.47;1.35;;;;;;;17.96;100.00;102403.53;5114786;28;20062;-69
2022/07/11 03:38:40;;;;;;;5.38;1.27;;;;;;;17.94;100.00;102402.63;5114764;28;20111;-69
2022/07/11 03:41:06;;;;;;;3.35;1.20;;;;;;;17.91;100.00;102405.25;5114819;28;20046;-69
2022/07/11 03:43:31;;;;;;;6.20;1.08;;;;;;;17.88;100.00;102403.44;5114617;28;20028;-70
2022/07/11 03:45:56;;;;;;;5.28;1.27;;;;;;;17.83;100.00;102400.69;5114809;28;20034;-69
2022/07/11 03:48:22;;;;;;;6.82;1.20;;;;;;;17.82;100.00;102400.69;5114707;28;20486;-70
2022/07/11 03:50:48;;;;;;;5.93;1.20;;;;;;;17.81;100.00;102405.13;5114605;28;20023;-69
2022/07/11 03:53:14;;;;;;;4.38;1.08;;;;;;;17.78;100.00;102410.41;5114397;28;20398;-70
2022/07/11 03:55:40;;;;;;;1.70;0.98;;;;;;;17.78;100.00;102414.84;5110136;28;20043;-70
2022/07/11 03:58:05;;;;;;;4.38;1.10;;;;;;;17.77;100.00;102411.28;5114249;28;20387;-69
2022/07/11 04:00:31;;;;;;;4.68;1.20;;;;;;;17.76;100.00;102412.16;5096141;28;20027;-70
2022/07/11 04:02:57;;;;;;;4.18;1.13;;;;;;;17.78;100.00;102415.72;5114250;28;20099;-70
2022/07/11 04:05:23;;;;;;;5.75;1.33;;;;;;;17.80;100.00;102415.78;5096404;28;20061;-70
2022/07/11 04:07:48;;;;;;;4.30;1.30;;;;;;;17.80;100.00;102402.44;5114056;28;20459;-70
2022/07/11 04:10:13;;;;;;;7.18;1.50;;;;;;;17.72;100.00;102415.66;5114280;28;20033;-69
2022/07/11 04:12:39;;;;;;;3.33;1.60;;;;;;;17.74;100.00;102413.00;5114081;28;20028;-70
2022/07/11 04:15:06;;;;;;;3.97;1.55;;;;;;;17.75;100.00;102410.38;5096069;28;20051;-70
2022/07/11 04:17:32;;;;;;;5.72;1.60;;;;;;;17.76;100.00;102406.84;5113986;28;20394;-70
2022/07/11 04:19:57;;;;;;;3.25;1.45;;;;;;;17.77;100.00;102411.28;5095655;28;20024;-70
2022/07/11 04:22:23;;;;;;;3.95;1.88;;;;;;;17.78;100.00;102405.06;5078895;28;20077;-69
2022/07/11 04:24:49;;;;;;;6.80;1.55;;;;;;;17.79;100.00;102417.50;5113844;28;20459;-71
2022/07/11 04:27:14;;;;;;;2.55;1.48;;;;;;;17.78;100.00;102415.72;5095525;28;20072;-70
2022/07/11 04:29:39;;;;;;;9.50;2.10;;;;;;;17.78;100.00;102413.06;5102637;28;20031;-70
2022/07/11 04:32:05;;;;;;;4.65;1.60;;;;;;;17.76;100.00;102408.63;5093391;28;20102;-70
2022/07/11 04:34:31;;;;;;;4.22;1.58;;;;;;;17.77;100.00;102403.31;5093062;28;20051;-69
2022/07/11 04:36:56;;;;;;;4.25;1.38;;;;;;;17.78;100.00;102398.88;5093304;28;20024;-71
2022/07/11 04:39:21;;;;;;;3.00;1.60;;;;;;;17.77;100.00;102402.38;5093470;28;20035;-70
2022/07/11 04:41:47;;;;;;;11.23;1.70;;;;;;;17.75;100.00;102399.72;5093271;28;20086;-71
2022/07/11 04:44:12;;;;;;;7.20;1.48;;;;;;;17.77;100.00;102407.72;5093378;28;20035;-70
2022/07/11 04:46:38;;;;;;;6.32;1.48;;;;;;;17.75;100.00;102407.69;5093357;28;20422;-70
2022/07/11 04:49:03;;;;;;;4.82;1.38;;;;;;;17.74;100.00;102413.00;5075173;28;20024;-70
2022/07/11 04:51:28;;;;;;;5.90;1.50;;;;;;;17.75;100.00;102406.81;5093229;28;20359;-70
2022/07/11 04:53:54;;;;;;;7.30;1.30;;;;;;;17.75;100.00;102404.16;5094378;28;20097;-70
2022/07/11 04:56:19;;;;;;;5.50;2.00;;;;;;;17.70;100.00;102406.75;5096808;28;20024;-69
2022/07/11 04:58:44;;;;;;;7.68;1.40;;;;;;;17.72;100.00;102410.34;5093425;28;20045;-70
2022/07/11 05:01:10;;;;;;;3.90;1.35;;;;;;;17.75;100.00;102414.81;5093136;28;20016;-70
2022/07/11 05:03:36;;;;;;;1.73;1.20;;;;;;;17.78;100.00;102420.16;5093150;28;20028;-69
2022/07/11 05:06:02;;;;;;;3.13;1.15;;;;;;;17.79;100.00;102419.28;5093177;28;20031;-69
2022/07/11 05:08:29;;;;;;;5.45;1.40;;;;;;;17.81;100.00;102420.19;5093056;28;20027;-70
2022/07/11 05:10:54;;;;;;;3.03;1.17;;;;;;;17.79;100.00;102424.63;5092968;28;20020;-70
2022/07/11 05:13:19;;;;;;;3.33;1.40;;;;;;;17.75;100.00;102426.34;5093009;28;20078;-70
2022/07/11 05:15:45;;;;;;;4.47;1.05;;;;;;;17.75;100.00;102425.47;5074860;28;20115;-71
2022/07/11 05:18:10;;;;;;;4.32;1.30;;;;;;;17.74;100.00;102421.88;5094793;28;20111;-70
2022/07/11 05:20:36;;;;;;;6.65;1.48;;;;;;;17.75;100.00;102434.31;5113355;28;20027;-70
2022/07/11 05:23:02;;;;;;;1.60;1.05;;;;;;;17.77;100.00;102440.59;5103172;28;20032;-70
2022/07/11 05:25:28;;;;;;;3.05;1.25;;;;;;;17.77;100.00;102448.56;5109756;28;20379;-70
2022/07/11 05:27:53;;;;;;;1.95;1.20;;;;;;;17.73;100.00;102446.75;5113326;28;20024;-70
2022/07/11 05:30:19;;;;;;;2.25;1.27;;;;;;;17.72;100.00;102442.28;5109795;28;20023;-70
2022/07/11 05:32:45;;;;;;;5.40;1.70;;;;;;;17.68;100.00;102451.13;5092880;28;20035;-70
2022/07/11 05:35:10;;;;;;;3.75;1.73;;;;;;;17.65;100.00;102451.09;5106445;28;20056;-70
2022/07/11 05:37:35;;;;;;;3.38;2.03;;;;;;;17.62;100.00;102453.69;5092727;28;20455;-70
2022/07/11 05:40:01;;;;;;;3.38;2.10;;;;;;;17.48;100.00;102443.75;5092677;28;20020;-71
2022/07/11 05:42:27;;;;;;;6.82;1.80;;;;;;;17.59;100.00;102456.31;5074726;28;20054;-70
2022/07/11 05:44:52;;;;;;;2.92;1.40;;;;;;;17.62;100.00;102456.34;5092926;28;20024;-69
2022/07/11 05:47:18;;;;;;;3.85;1.35;;;;;;;17.66;100.00;102458.16;5096617;28;20032;-71
2022/07/11 05:49:43;;;;;;;2.40;1.45;;;;;;;17.62;100.00;102453.69;5096530;28;20024;-70
2022/07/11 05:52:09;;;;;;;2.10;1.20;;;;;;;17.62;100.00;102456.34;5096436;28;20078;-70
2022/07/11 05:54:35;;;;;;;3.80;1.42;;;;;;;17.65;100.00;102451.97;5100848;28;20444;-70
2022/07/11 05:57:03;;;;;;;4.60;1.30;;;;;;;17.66;100.00;102453.75;5078090;28;20034;-70
2022/07/11 05:59:29;;;;;;;1.83;1.17;;;;;;;17.63;100.00;102463.47;5096368;28;20016;-70
2022/07/11 06:01:55;;;;;;;1.52;1.10;;;;;;;17.65;100.00;102459.94;5096303;28;20058;-70
2022/07/11 06:04:20;;;;;;;3.03;1.20;;;;;;;17.71;100.00;102459.13;5096209;28;20027;-70
2022/07/11 06:06:46;;;;;;;5.18;1.13;;;;;;;17.61;100.00;102454.56;5096288;28;20026;-69
2022/07/11 06:09:11;;;;;;;2.63;1.27;;;;;;;17.63;100.00;102458.13;5096033;28;20113;-69
2022/07/11 06:11:36;;;;;;;2.38;1.20;;;;;;;17.62;100.00;102454.59;5096147;28;20467;-70
2022/07/11 06:14:02;;;;;;;1.67;0.90;;;;;;;17.72;100.00;102447.63;5096154;28;20032;-71
2022/07/11 06:16:27;;;;;;;1.77;1.20;;;;;;;17.74;100.00;102434.31;5096089;28;20027;-70
2022/07/11 06:18:53;;;;;;;2.83;1.40;;;;;;;17.77;100.00;102432.59;5103714;28;20055;-70
2022/07/11 06:21:20;;;;;;;1.92;1.20;;;;;;;17.81;100.00;102426.44;5098023;28;20453;-70
2022/07/11 06:23:46;;;;;;;1.58;1.15;;;;;;;17.85;100.00;102428.25;5097986;28;20019;-70
2022/07/11 06:26:11;;;;;;;4.45;1.40;;;;;;;17.90;100.00;102422.97;5106674;28;20039;-70
2022/07/11 06:28:39;;;;;;;2.42;1.35;;;;;;;17.84;100.00;102426.47;5095847;28;20035;-71
2022/07/11 06:31:04;;;;;;;4.68;1.60;;;;;;;17.79;100.00;102424.63;5095781;28;20122;-70
2022/07/11 06:33:30;;;;;;;2.97;1.70;;;;;;;17.87;100.00;102420.28;5095785;28;20126;-70
2022/07/11 06:35:55;;;;;;;3.70;1.20;;;;;;;17.79;100.00;102420.19;5095674;28;20467;-70
2022/07/11 06:38:20;;;;;;;5.25;1.40;;;;;;;17.90;100.00;102435.41;5095493;28;20028;-70
2022/07/11 06:40:47;;;;;;;4.20;1.38;;;;;;;17.94;100.00;102422.16;5095547;28;20024;-70
2022/07/11 06:43:12;;;;;;;4.85;1.25;;;;;;;17.94;100.00;102430.16;5095884;28;20024;-70
2022/07/11 06:45:38;;;;;;;2.88;1.63;;;;;;;17.99;100.00;102446.19;5077350;28;20024;-70
2022/07/11 06:48:04;;;;;;;2.85;1.42;;;;;;;18.06;100.00;102439.19;5095342;28;20068;-70
2022/07/11 06:50:30;;;;;;;3.80;1.10;;;;;;;18.10;100.00;102439.22;5095427;28;20052;-70
2022/07/11 06:52:56;;;;;;;4.70;1.30;;;;;;;18.15;100.00;102444.56;5077033;28;20086;-70
2022/07/11 06:55:21;;;;;;;1.75;0.90;;;;;;;18.16;100.00;102447.28;5081355;28;20024;-71
2022/07/11 06:57:47;;;;;;;2.45;1.30;;;;;;;18.11;100.00;102441.00;5076697;28;20024;-70
2022/07/11 07:00:12;;;;;;;4.43;1.42;;;;;;;18.06;100.00;102437.38;5095336;28;20383;-70
2022/07/11 07:02:38;;;;;;;1.80;1.20;;;;;;;18.09;100.00;102437.41;5094741;28;20480;-70
2022/07/11 07:05:04;;;;;;;4.22;1.40;;;;;;;18.15;100.00;102436.59;5094643;28;20028;-70
2022/07/11 07:07:31;;;;;;;4.20;2.00;;;;;;;18.13;100.00;102444.56;5094365;28;20024;-70
2022/07/11 07:09:56;;;;;;;5.18;1.77;;;;;;;18.10;100.00;102444.53;5094560;28;20052;-70
2022/07/11 07:12:22;;;;;;;7.60;1.77;;;;;;;18.07;100.00;102459.59;5096402;28;20534;-70
2022/07/11 07:14:48;;;;;;;6.38;1.70;;;;;;;18.06;100.00;102461.38;5097021;28;20020;-71
2022/07/11 07:17:13;;;;;;;7.78;1.80;;;;;;;18.11;100.00;102456.06;5099953;28;20525;-70
2022/07/11 07:19:39;;;;;;;7.10;1.70;;;;;;;18.06;100.00;102463.16;5109062;28;20023;-70
2022/07/11 07:22:05;;;;;;;3.17;1.48;;;;;;;18.14;100.00;102453.47;5099104;28;20040;-71
2022/07/11 07:24:32;;;;;;;4.25;1.30;;;;;;;18.24;100.00;102459.78;5103514;28;20024;-71
2022/07/11 07:26:57;;;;;;;4.50;1.30;;;;;;;18.18;100.00;102464.16;5114959;28;20015;-70
2022/07/11 07:29:23;;;;;;;2.95;1.00;;;;;;;18.36;100.00;102468.78;5115028;28;20030;-71
2022/07/11 07:31:49;;;;;;;0.82;0.82;;;;;;;18.49;100.00;102468.94;5114915;28;20051;-70
2022/07/11 07:34:14;;;;;;;2.00;0.90;;;;;;;18.49;100.00;102469.81;5114949;28;20483;-70
2022/07/11 07:36:39;;;;;;;1.70;1.00;;;;;;;18.57;100.00;102471.66;5114734;28;20413;-70
2022/07/11 07:39:05;;;;;;;1.35;0.93;;;;;;;18.56;100.00;102467.19;5114859;28;20054;-71
2022/07/11 07:41:31;;;;;;;2.72;1.30;;;;;;;18.45;100.00;102473.34;5114765;28;20031;-70
2022/07/11 07:43:56;;;;;;;2.67;1.30;;;;;;;18.57;100.00;102476.97;5096384;28;20027;-71
2022/07/11 07:46:21;;;;;;;3.95;1.63;;;;;;;18.48;100.00;102468.03;5114604;28;20030;-70
2022/07/11 07:48:47;;;;;;;3.47;1.17;;;;;;;18.57;100.00;102469.91;5114632;28;20106;-70
2022/07/11 07:51:12;;;;;;;2.25;1.02;;;;;;;18.61;100.00;102468.13;5114414;28;20032;-71
2022/07/11 07:53:38;;;;;;;1.98;1.17;;;;;;;18.44;100.00;102468.88;5114481;28;20059;-68
2022/07/11 07:56:04;;;;;;;4.53;1.23;;;;;;;18.58;100.00;102461.00;5108803;28;20104;-70
2022/07/11 07:58:30;;;;;;;2.75;1.45;;;;;;;18.56;100.00;102459.19;5094187;28;20069;-71
2022/07/11 08:03:39;;;;;;;3.42;1.10;;;;;;;18.72;100.00;102469.16;5094271;28;20558;-70
2022/07/11 08:06:05;;;;;;;1.33;1.10;;;;;;;18.63;100.00;102471.72;5075707;28;20024;-70
2022/07/11 08:08:30;;;;;;;3.33;1.27;;;;;;;18.70;100.00;102477.09;5093355;28;20031;-70
2022/07/11 08:10:55;;;;;;;5.88;1.60;;;;;;;18.42;100.00;102475.97;5093824;28;20016;-70
2022/07/11 08:13:21;;;;;;;4.05;1.35;;;;;;;18.64;100.00;102470.84;5093918;28;20107;-69
2022/07/11 08:15:46;;;;;;;4.82;1.23;;;;;;;18.65;100.00;102476.19;5107655;28;20472;-70
2022/07/11 08:18:13;;;;;;;1.75;1.55;;;;;;;18.65;100.00;102476.19;5095872;28;20383;-69
2022/07/11 08:20:38;;;;;;;2.28;1.10;;;;;;;18.62;100.00;102476.13;5110500;28;20032;-70
2022/07/11 08:23:06;;;;;;;4.55;2.30;;;;;;;18.71;100.00;102475.34;5093651;28;20169;-69
2022/07/11 08:25:32;;;;;;;7.18;2.40;;;;;;;18.75;100.00;102473.63;5110922;28;20047;-70
2022/07/11 08:27:57;;;;;;;5.25;2.40;;;;;;;18.71;100.00;102476.22;5095884;28;20062;-71
2022/07/11 08:30:23;;;;;;;2.75;2.10;;;;;;;18.72;100.00;102482.47;5113957;28;20490;-71
2022/07/11 08:32:48;;;;;;;4.38;2.15;;;;;;;18.65;100.00;102480.59;5113817;28;20479;-70
2022/07/11 08:35:16;;;;;;;4.43;2.05;;;;;;;18.64;100.00;102476.19;5113811;28;20031;-70
2022/07/11 08:37:42;;;;;;;5.00;2.17;;;;;;;18.73;100.00;102481.56;5113735;28;20024;-70
2022/07/11 08:40:08;;;;;;;2.63;1.67;;;;;;;18.70;100.00;102476.22;5109548;28;20028;-71
2022/07/11 08:42:39;;;;;;;3.47;1.50;;;;;;;18.82;100.00;102479.00;5093513;28;20024;-69
2022/07/11 08:45:05;;;;;;;6.53;3.97;;;;;;;18.93;100.00;102478.22;5093309;28;20115;-69
2022/07/11 08:47:32;;;;;;;5.88;3.47;;;;;;;19.01;100.00;102474.72;5093309;28;20108;-71
2022/07/11 08:49:59;;;;;;;5.63;3.90;;;;;;;19.02;100.00;102470.31;5093255;28;20094;-71
2022/07/11 08:52:24;;;;;;;4.90;3.80;;;;;;;19.23;100.00;102471.34;5093092;28;20395;-70
2022/07/11 08:54:51;;;;;;;6.30;4.80;;;;;;;19.45;100.00;102469.69;5079346;28;20012;-71
2022/07/11 08:57:16;;;;;;;6.18;4.70;;;;;;;19.61;100.00;102466.19;5093214;28;20378;-70
2022/07/11 08:59:45;;;;;;;5.40;4.88;;;;;;;19.67;100.00;102470.69;5093150;28;20102;-71
2022/07/11 09:02:12;;;;;;;5.35;4.60;;;;;;;19.64;100.00;102471.56;5093123;28;20040;-70
2022/07/11 09:04:37;;;;;;;7.75;4.35;;;;;;;19.70;100.00;102471.59;5093121;28;20391;-71
2022/07/11 09:07:03;;;;;;;7.03;4.90;;;;;;;19.74;100.00;102464.50;5093190;28;20028;-71
2022/07/11 09:09:29;;;;;;;7.60;4.20;;;;;;;19.77;100.00;102466.28;5092893;28;20028;-69
2022/07/11 09:11:56;;;;;;;3.20;2.50;;;;;;;19.68;100.00;102472.47;5093107;28;20017;-70
2022/07/11 09:14:32;;;;;;;4.20;2.85;;;;;;;19.92;100.00;102468.16;5092990;28;20047;-70
2022/07/11 09:17:05;;;;;;;6.32;3.78;;;;;;;19.95;100.00;102473.50;5093192;28;20035;-70
2022/07/11 09:19:33;;;;;;;2.45;2.13;;;;;;;20.02;100.00;102472.63;5107496;28;20020;-70
2022/07/11 09:28:05;;;;;;;5.75;4.32;;;;;;;19.91;100.00;102474.38;5117688;28;20030;-70
2022/07/11 09:30:39;;;;;;;6.47;3.42;;;;;;;20.00;100.00;102474.41;5117474;28;20530;-70
2022/07/11 09:33:05;;;;;;;6.03;3.90;;;;;;;19.61;100.00;102476.00;5117397;28;20223;-70
2022/07/11 09:35:31;;;;;;;3.90;3.42;;;;;;;19.85;100.00;102470.78;5117192;28;20467;-70
2022/07/11 09:37:57;;;;;;;5.70;4.63;;;;;;;19.80;100.00;102466.28;5117418;28;20532;-70
2022/07/11 09:40:22;;;;;;;6.93;5.38;;;;;;;19.60;100.00;102475.13;5117298;28;20020;-70
2022/07/11 09:42:50;;;;;;;7.68;4.93;;;;;;;19.38;100.00;102479.44;5117198;28;20082;-70
2022/07/11 09:45:17;;;;;;;6.18;4.90;;;;;;;19.58;100.00;102481.34;5117117;28;20378;-70
2022/07/11 09:47:50;;;;;;;7.63;6.15;;;;;;;19.58;100.00;102478.66;5117089;28;20032;-70
2022/07/11 09:50:20;;;;;;;8.13;6.15;;;;;;;19.78;100.00;102478.72;5117074;28;20074;-70
2022/07/11 09:53:10;;;;;;;11.15;8.07;;;;;;;20.04;100.00;102477.09;5116794;28;20406;-70
2022/07/11 09:55:41;;;;;;;12.13;8.02;;;;;;;19.97;100.00;102469.97;5112351;28;20069;-70
2022/07/11 09:58:09;;;;;;;9.15;7.13;;;;;;;19.90;100.00;102469.91;5116629;28;20031;-70
2022/07/11 10:00:36;;;;;;;9.85;8.43;;;;;;;20.08;100.00;102477.13;5116838;28;20065;-70
2022/07/11 10:03:03;;;;;;;10.88;8.80;;;;;;;20.25;100.00;102471.81;5116714;28;20457;-70
2022/07/11 10:05:29;;;;;;;10.70;7.88;;;;;;;20.29;100.00;102470.94;5116751;28;20020;-70
2022/07/11 10:07:55;;;;;;;9.15;7.03;;;;;;;20.50;100.00;102468.28;5116457;28;20075;-71
2022/07/11 10:10:21;;;;;;;9.30;7.18;;;;;;;20.78;100.00;102471.03;5116653;28;20064;-70
2022/07/11 10:12:47;;;;;;;8.65;7.43;;;;;;;20.95;100.00;102464.78;5116524;28;20027;-70
2022/07/11 10:15:19;;;;;;;10.90;8.55;;;;;;;21.12;100.00;102468.31;5116464;28;20032;-71
2022/07/11 10:18:03;;;;;;;11.20;8.20;;;;;;;21.27;100.00;102461.13;5116348;28;20036;-71
2022/07/11 10:20:49;;;;;;;10.18;6.90;;;;;;;21.42;100.00;102461.13;5109658;28;20026;-69
2022/07/11 10:23:33;;;;;;;9.45;7.90;;;;;;;21.48;100.00;102463.75;5077707;28;20496;-70
2022/07/11 10:26:23;;;;;;;9.82;7.15;;;;;;;21.64;100.00;102458.41;5103583;28;20028;-70
2022/07/11 10:28:54;;;;;;;9.35;7.05;;;;;;;21.55;100.00;102459.31;5116208;28;20108;-69
2022/07/11 10:31:21;;;;;;;7.13;6.18;;;;;;;22.06;100.00;102467.13;5115583;28;20023;-70
2022/07/11 10:34:01;;;;;;;6.95;5.50;;;;;;;22.32;100.00;102458.03;5110818;28;20448;-71
2022/07/11 10:36:27;;;;;;;6.57;5.85;;;;;;;22.35;100.00;102469.66;5095484;28;20463;-70
2022/07/11 10:39:18;;;;;;;13.55;5.32;;;;;;;22.43;100.00;102464.25;5095764;28;20042;-70
2022/07/11 10:41:46;;;;;;;7.90;5.88;;;;;;;22.52;100.00;102469.56;5095531;28;20030;-70
2022/07/11 10:44:11;;;;;;;8.48;5.55;;;;;;;22.42;100.00;102465.13;5077362;28;20024;-69
2022/07/11 10:46:37;;;;;;;6.18;5.03;;;;;;;22.26;100.00;102469.72;5060733;28;20028;-70
2022/07/11 10:49:20;;;;;;;5.93;4.53;;;;;;;22.10;100.00;102476.94;5095674;28;20035;-70
2022/07/11 10:51:46;;;;;;;;;;;;;;;22.34;100.00;102469.63;5095813;28;20118;-71
2022/07/11 10:54:26;;;;;;;7.07;5.07;;;;;;;22.55;100.00;102461.47;5099138;28;19948;-71
2022/07/11 10:57:13;;;;;;;6.70;4.50;;;;;;;22.43;100.00;102461.56;5095169;28;20028;-70
2022/07/11 11:00:11;;;;;;;7.15;4.43;;;;;;;22.68;100.00;102458.69;5095148;28;20020;-71
2022/07/11 11:03:04;;;;;;;4.50;4.00;;;;;;;22.59;100.00;102451.63;5083118;28;20051;-70
2022/07/11 11:05:38;;;;;;;;;;;;;;;22.70;100.00;102459.56;5095614;28;20376;-70
2022/07/11 11:08:30;;;;;;;4.10;3.70;;;;;;;22.70;100.00;102456.91;5101941;28;19912;-70
2022/07/11 11:10:55;;;;;;;4.55;3.45;;;;;;;22.86;100.00;102463.91;5115248;28;20040;-70
2022/07/11 11:13:20;;;;;;;5.00;3.88;;;;;;;23.04;100.00;102470.00;5115308;28;20535;-72
2022/07/11 11:15:54;;;;;;;6.35;4.35;;;;;;;23.21;100.00;102460.03;5115310;28;20023;-71
2022/07/11 11:18:25;;;;;;;5.93;4.10;;;;;;;23.46;100.00;102469.63;5107063;28;20463;-71
2022/07/11 11:21:02;;;;;;;5.30;4.13;;;;;;;23.84;100.00;102463.75;5109957;28;20494;-71
2022/07/11 11:23:32;;;;;;;6.20;4.10;;;;;;;24.00;100.00;102458.22;5094841;28;20024;-70
2022/07/11 11:26:08;;;;;;;7.15;4.70;;;;;;;23.68;100.00;102448.75;5115003;28;20055;-70